sensor_id;sensor_type;location;lat;lon;timestamp;P1;durP1;ratioP1;P2;durP2;ratioP2
61675;SDS011;47574;52.090;5.244;2024-01-06T00:00:18;11.7;;;9.71;;
61675;SDS011;47574;52.090;5.244;2024-01-06T00:01:54;10.5;;;9.4;;
61675;SDS011;47574;52.090;5.244;2024-01-06T00:03:30;9.21;;;8.31;;
61675;SDS011;47574;52.090;5.244;2024-01-06T00:05:06;8.9;;;8.0;;
61675;SDS011;47574;52.090;5.244;2024-01-06T00:08:19;9.9;;;8.71;;
61675;SDS011;47574;52.090;5.244;2024-01-06T00:09:56;10.1;;;8.4;;
61675;SDS011;47574;52.090;5.244;2024-01-06T00:11:32;9.21;;;8.31;;
61675;SDS011;47574;52.090;5.244;2024-01-06T00:14:45;8.5;;;7.7;;
61675;SDS011;47574;52.090;5.244;2024-01-06T00:16:21;9.5;;;8.5;;
61675;SDS011;47574;52.090;5.244;2024-01-06T00:17:57;8.81;;;7.9;;
61675;SDS011;47574;52.090;5.244;2024-01-06T00:21:13;8.1;;;7.3;;
61675;SDS011;47574;52.090;5.244;2024-01-06T00:22:49;8.71;;;7.8;;
61675;SDS011;47574;52.090;5.244;2024-01-06T00:24:25;8.6;;;7.8;;
61675;SDS011;47574;52.090;5.244;2024-01-06T00:26:01;8.2;;;7.4;;
61675;SDS011;47574;52.090;5.244;2024-01-06T00:29:13;8.1;;;7.3;;
61675;SDS011;47574;52.090;5.244;2024-01-06T00:30:49;7.9;;;7.2;;
61675;SDS011;47574;52.090;5.244;2024-01-06T00:32:25;7.8;;;7.1;;
61675;SDS011;47574;52.090;5.244;2024-01-06T00:35:38;7.6;;;6.8;;
61675;SDS011;47574;52.090;5.244;2024-01-06T00:37:14;7.1;;;6.5;;
61675;SDS011;47574;52.090;5.244;2024-01-06T00:38:50;7.6;;;6.9;;
61675;SDS011;47574;52.090;5.244;2024-01-06T00:42:05;6.3;;;5.8;;
61675;SDS011;47574;52.090;5.244;2024-01-06T00:43:42;5.8;;;5.3;;
61675;SDS011;47574;52.090;5.244;2024-01-06T00:45:18;6.3;;;5.8;;
61675;SDS011;47574;52.090;5.244;2024-01-06T00:46:54;6.8;;;6.1;;
61675;SDS011;47574;52.090;5.244;2024-01-06T00:50:07;7.0;;;6.3;;
61675;SDS011;47574;52.090;5.244;2024-01-06T00:51:43;6.7;;;6.1;;
61675;SDS011;47574;52.090;5.244;2024-01-06T00:53:21;5.7;;;5.2;;
61675;SDS011;47574;52.090;5.244;2024-01-06T00:56:33;5.6;;;5.2;;
61675;SDS011;47574;52.090;5.244;2024-01-06T00:58:09;5.6;;;5.11;;
61675;SDS011;47574;52.090;5.244;2024-01-06T00:59:45;6.4;;;5.9;;
61675;SDS011;47574;52.090;5.244;2024-01-06T01:02:57;7.0;;;6.3;;
61675;SDS011;47574;52.090;5.244;2024-01-06T01:04:33;5.3;;;4.8;;
61675;SDS011;47574;52.090;5.244;2024-01-06T01:06:09;4.7;;;4.3;;
61675;SDS011;47574;52.090;5.244;2024-01-06T01:07:45;4.7;;;4.3;;
61675;SDS011;47574;52.090;5.244;2024-01-06T01:10:58;4.2;;;3.8;;
61675;SDS011;47574;52.090;5.244;2024-01-06T01:12:34;3.8;;;3.5;;
61675;SDS011;47574;52.090;5.244;2024-01-06T01:14:10;4.1;;;3.8;;
61675;SDS011;47574;52.090;5.244;2024-01-06T01:17:22;3.2;;;3.0;;
61675;SDS011;47574;52.090;5.244;2024-01-06T01:18:58;3.0;;;2.8;;
61675;SDS011;47574;52.090;5.244;2024-01-06T01:20:34;3.9;;;3.6;;
61675;SDS011;47574;52.090;5.244;2024-01-06T01:23:46;3.8;;;3.6;;
61675;SDS011;47574;52.090;5.244;2024-01-06T01:25:22;3.4;;;3.1;;
61675;SDS011;47574;52.090;5.244;2024-01-06T01:26:58;3.9;;;3.6;;
61675;SDS011;47574;52.090;5.244;2024-01-06T01:30:11;3.6;;;3.4;;
61675;SDS011;47574;52.090;5.244;2024-01-06T01:31:47;3.9;;;3.6;;
61675;SDS011;47574;52.090;5.244;2024-01-06T01:33:23;3.2;;;3.0;;
61675;SDS011;47574;52.090;5.244;2024-01-06T01:35:00;3.6;;;3.3;;
61675;SDS011;47574;52.090;5.244;2024-01-06T01:38:12;3.1;;;2.9;;
61675;SDS011;47574;52.090;5.244;2024-01-06T01:39:48;3.9;;;3.0;;
61675;SDS011;47574;52.090;5.244;2024-01-06T01:41:24;3.4;;;2.9;;
61675;SDS011;47574;52.090;5.244;2024-01-06T01:44:37;3.1;;;2.9;;
61675;SDS011;47574;52.090;5.244;2024-01-06T01:46:13;2.6;;;2.5;;
61675;SDS011;47574;52.090;5.244;2024-01-06T01:47:49;2.9;;;2.6;;
61675;SDS011;47574;52.090;5.244;2024-01-06T01:51:02;4.1;;;3.1;;
61675;SDS011;47574;52.090;5.244;2024-01-06T01:52:39;3.6;;;3.3;;
61675;SDS011;47574;52.090;5.244;2024-01-06T01:54:17;3.6;;;3.4;;
61675;SDS011;47574;52.090;5.244;2024-01-06T01:55:53;5.0;;;3.6;;
61675;SDS011;47574;52.090;5.244;2024-01-06T01:59:06;3.8;;;3.6;;
61675;SDS011;47574;52.090;5.244;2024-01-06T02:00:47;5.2;;;3.8;;
61675;SDS011;47574;52.090;5.244;2024-01-06T02:02:24;4.3;;;4.0;;
61675;SDS011;47574;52.090;5.244;2024-01-06T02:05:37;6.0;;;4.7;;
61675;SDS011;47574;52.090;5.244;2024-01-06T02:07:13;4.61;;;4.2;;
61675;SDS011;47574;52.090;5.244;2024-01-06T02:08:49;4.5;;;4.2;;
61675;SDS011;47574;52.090;5.244;2024-01-06T02:12:05;5.2;;;4.7;;
61675;SDS011;47574;52.090;5.244;2024-01-06T02:13:41;4.61;;;4.2;;
61675;SDS011;47574;52.090;5.244;2024-01-06T02:15:17;5.7;;;4.8;;
61675;SDS011;47574;52.090;5.244;2024-01-06T02:16:54;4.8;;;4.41;;
61675;SDS011;47574;52.090;5.244;2024-01-06T02:20:08;4.7;;;4.3;;
61675;SDS011;47574;52.090;5.244;2024-01-06T02:21:48;3.4;;;3.1;;
61675;SDS011;47574;52.090;5.244;2024-01-06T02:23:24;3.2;;;3.0;;
61675;SDS011;47574;52.090;5.244;2024-01-06T02:26:36;3.2;;;2.6;;
61675;SDS011;47574;52.090;5.244;2024-01-06T02:28:12;2.1;;;2.0;;
61675;SDS011;47574;52.090;5.244;2024-01-06T02:29:48;3.0;;;2.8;;
61675;SDS011;47574;52.090;5.244;2024-01-06T02:33:00;3.3;;;3.0;;
61675;SDS011;47574;52.090;5.244;2024-01-06T02:34:36;3.2;;;3.0;;
61675;SDS011;47574;52.090;5.244;2024-01-06T02:36:12;2.8;;;2.6;;
61675;SDS011;47574;52.090;5.244;2024-01-06T02:37:49;3.1;;;2.9;;
61675;SDS011;47574;52.090;5.244;2024-01-06T02:41:01;2.9;;;2.7;;
61675;SDS011;47574;52.090;5.244;2024-01-06T02:42:37;3.1;;;2.8;;
61675;SDS011;47574;52.090;5.244;2024-01-06T02:44:13;2.9;;;2.7;;
61675;SDS011;47574;52.090;5.244;2024-01-06T02:47:25;3.1;;;2.8;;
61675;SDS011;47574;52.090;5.244;2024-01-06T02:49:01;3.0;;;2.7;;
61675;SDS011;47574;52.090;5.244;2024-01-06T02:50:37;3.2;;;2.9;;
61675;SDS011;47574;52.090;5.244;2024-01-06T02:53:49;3.9;;;3.5;;
61675;SDS011;47574;52.090;5.244;2024-01-06T02:55:26;3.0;;;2.8;;
61675;SDS011;47574;52.090;5.244;2024-01-06T02:57:02;3.4;;;3.0;;
61675;SDS011;47574;52.090;5.244;2024-01-06T03:00:14;3.9;;;3.6;;
61675;SDS011;47574;52.090;5.244;2024-01-06T03:01:51;4.1;;;3.8;;
61675;SDS011;47574;52.090;5.244;2024-01-06T03:03:27;4.0;;;3.6;;
61675;SDS011;47574;52.090;5.244;2024-01-06T03:05:03;3.9;;;3.6;;
61675;SDS011;47574;52.090;5.244;2024-01-06T03:08:20;3.8;;;3.3;;
61675;SDS011;47574;52.090;5.244;2024-01-06T03:09:55;3.4;;;3.2;;
61675;SDS011;47574;52.090;5.244;2024-01-06T03:11:31;3.9;;;3.5;;
61675;SDS011;47574;52.090;5.244;2024-01-06T03:14:44;3.7;;;3.4;;
61675;SDS011;47574;52.090;5.244;2024-01-06T03:16:20;3.5;;;3.3;;
61675;SDS011;47574;52.090;5.244;2024-01-06T03:17:56;3.7;;;3.4;;
61675;SDS011;47574;52.090;5.244;2024-01-06T03:21:16;5.11;;;3.7;;
61675;SDS011;47574;52.090;5.244;2024-01-06T03:22:52;4.2;;;3.8;;
61675;SDS011;47574;52.090;5.244;2024-01-06T03:24:28;3.9;;;3.5;;
61675;SDS011;47574;52.090;5.244;2024-01-06T03:26:05;4.1;;;3.6;;
61675;SDS011;47574;52.090;5.244;2024-01-06T03:29:18;3.8;;;3.5;;
61675;SDS011;47574;52.090;5.244;2024-01-06T03:30:54;3.9;;;3.5;;
61675;SDS011;47574;52.090;5.244;2024-01-06T03:32:29;4.61;;;4.2;;
61675;SDS011;47574;52.090;5.244;2024-01-06T03:35:41;4.41;;;4.0;;
61675;SDS011;47574;52.090;5.244;2024-01-06T03:37:17;4.3;;;3.8;;
61675;SDS011;47574;52.090;5.244;2024-01-06T03:38:53;4.8;;;4.3;;
61675;SDS011;47574;52.090;5.244;2024-01-06T03:40:29;4.2;;;3.4;;
61675;SDS011;47574;52.090;5.244;2024-01-06T03:43:41;4.91;;;4.0;;
61675;SDS011;47574;52.090;5.244;2024-01-06T03:45:17;4.61;;;4.1;;
61675;SDS011;47574;52.090;5.244;2024-01-06T03:46:54;4.2;;;3.8;;
61675;SDS011;47574;52.090;5.244;2024-01-06T03:50:06;4.1;;;3.8;;
61675;SDS011;47574;52.090;5.244;2024-01-06T03:51:43;3.7;;;3.4;;
61675;SDS011;47574;52.090;5.244;2024-01-06T03:53:22;4.41;;;4.0;;
61675;SDS011;47574;52.090;5.244;2024-01-06T03:56:34;4.61;;;4.2;;
61675;SDS011;47574;52.090;5.244;2024-01-06T03:58:10;4.7;;;4.0;;
61675;SDS011;47574;52.090;5.244;2024-01-06T03:59:46;4.1;;;3.7;;
61675;SDS011;47574;52.090;5.244;2024-01-06T04:02:59;5.11;;;4.61;;
61675;SDS011;47574;52.090;5.244;2024-01-06T04:04:35;4.61;;;4.2;;
61675;SDS011;47574;52.090;5.244;2024-01-06T04:06:11;4.0;;;3.7;;
61675;SDS011;47574;52.090;5.244;2024-01-06T04:07:47;4.2;;;3.8;;
61675;SDS011;47574;52.090;5.244;2024-01-06T04:10:59;5.9;;;4.1;;
61675;SDS011;47574;52.090;5.244;2024-01-06T04:12:35;4.2;;;3.8;;
61675;SDS011;47574;52.090;5.244;2024-01-06T04:14:11;4.0;;;3.7;;
61675;SDS011;47574;52.090;5.244;2024-01-06T04:17:23;4.3;;;3.9;;
61675;SDS011;47574;52.090;5.244;2024-01-06T04:18:59;4.3;;;4.0;;
61675;SDS011;47574;52.090;5.244;2024-01-06T04:20:36;4.3;;;3.9;;
61675;SDS011;47574;52.090;5.244;2024-01-06T04:23:48;4.3;;;3.9;;
61675;SDS011;47574;52.090;5.244;2024-01-06T04:25:24;4.3;;;3.9;;
61675;SDS011;47574;52.090;5.244;2024-01-06T04:27:00;4.2;;;3.8;;
61675;SDS011;47574;52.090;5.244;2024-01-06T04:28:36;5.4;;;4.5;;
61675;SDS011;47574;52.090;5.244;2024-01-06T04:31:48;4.41;;;4.0;;
61675;SDS011;47574;52.090;5.244;2024-01-06T04:33:24;5.7;;;4.7;;
61675;SDS011;47574;52.090;5.244;2024-01-06T04:35:00;4.61;;;4.2;;
61675;SDS011;47574;52.090;5.244;2024-01-06T04:38:13;5.3;;;4.5;;
61675;SDS011;47574;52.090;5.244;2024-01-06T04:39:49;5.7;;;4.3;;
61675;SDS011;47574;52.090;5.244;2024-01-06T04:41:25;4.41;;;4.0;;
61675;SDS011;47574;52.090;5.244;2024-01-06T04:44:37;4.2;;;3.8;;
61675;SDS011;47574;52.090;5.244;2024-01-06T04:46:13;4.5;;;4.0;;
61675;SDS011;47574;52.090;5.244;2024-01-06T04:47:49;4.61;;;4.1;;
61675;SDS011;47574;52.090;5.244;2024-01-06T04:51:01;5.7;;;4.7;;
61675;SDS011;47574;52.090;5.244;2024-01-06T04:52:37;5.7;;;4.5;;
61675;SDS011;47574;52.090;5.244;2024-01-06T04:54:14;6.1;;;5.11;;
61675;SDS011;47574;52.090;5.244;2024-01-06T04:55:50;5.4;;;4.91;;
61675;SDS011;47574;52.090;5.244;2024-01-06T04:59:02;5.4;;;4.91;;
61675;SDS011;47574;52.090;5.244;2024-01-06T05:00:38;6.4;;;5.8;;
61675;SDS011;47574;52.090;5.244;2024-01-06T05:02:14;7.3;;;6.0;;
61675;SDS011;47574;52.090;5.244;2024-01-06T05:05:26;7.8;;;5.7;;
61675;SDS011;47574;52.090;5.244;2024-01-06T05:07:03;6.0;;;5.4;;
61675;SDS011;47574;52.090;5.244;2024-01-06T05:08:39;5.8;;;5.3;;
61675;SDS011;47574;52.090;5.244;2024-01-06T05:11:52;7.5;;;6.2;;
61675;SDS011;47574;52.090;5.244;2024-01-06T05:13:28;7.9;;;6.2;;
61675;SDS011;47574;52.090;5.244;2024-01-06T05:15:04;8.1;;;6.3;;
61675;SDS011;47574;52.090;5.244;2024-01-06T05:18:17;8.5;;;6.6;;
61675;SDS011;47574;52.090;5.244;2024-01-06T05:19:53;8.2;;;6.6;;
61675;SDS011;47574;52.090;5.244;2024-01-06T05:21:30;8.0;;;7.1;;
61675;SDS011;47574;52.090;5.244;2024-01-06T05:23:09;7.5;;;6.7;;
61675;SDS011;47574;52.090;5.244;2024-01-06T05:26:22;9.4;;;6.9;;
61675;SDS011;47574;52.090;5.244;2024-01-06T05:27:58;8.6;;;6.9;;
61675;SDS011;47574;52.090;5.244;2024-01-06T05:29:34;7.8;;;6.8;;
61675;SDS011;47574;52.090;5.244;2024-01-06T05:32:46;8.81;;;7.3;;
61675;SDS011;47574;52.090;5.244;2024-01-06T05:34:22;10.7;;;7.4;;
61675;SDS011;47574;52.090;5.244;2024-01-06T05:35:58;8.2;;;6.6;;
61675;SDS011;47574;52.090;5.244;2024-01-06T05:39:10;9.71;;;7.1;;
61675;SDS011;47574;52.090;5.244;2024-01-06T05:40:46;8.31;;;6.8;;
61675;SDS011;47574;52.090;5.244;2024-01-06T05:42:22;9.9;;;6.7;;
61675;SDS011;47574;52.090;5.244;2024-01-06T05:43:58;8.6;;;6.8;;
61675;SDS011;47574;52.090;5.244;2024-01-06T05:47:11;8.81;;;6.6;;
61675;SDS011;47574;52.090;5.244;2024-01-06T05:48:47;7.4;;;6.4;;
61675;SDS011;47574;52.090;5.244;2024-01-06T05:50:23;8.81;;;6.6;;
61675;SDS011;47574;52.090;5.244;2024-01-06T05:53:35;8.9;;;6.9;;
61675;SDS011;47574;52.090;5.244;2024-01-06T05:55:11;7.6;;;6.5;;
61675;SDS011;47574;52.090;5.244;2024-01-06T05:56:50;8.1;;;6.7;;
61675;SDS011;47574;52.090;5.244;2024-01-06T06:00:03;7.8;;;6.0;;
61675;SDS011;47574;52.090;5.244;2024-01-06T06:01:43;7.8;;;6.3;;
61675;SDS011;47574;52.090;5.244;2024-01-06T06:03:19;6.9;;;6.2;;
61675;SDS011;47574;52.090;5.244;2024-01-06T06:04:55;8.81;;;6.7;;
61675;SDS011;47574;52.090;5.244;2024-01-06T06:08:07;7.7;;;6.6;;
61675;SDS011;47574;52.090;5.244;2024-01-06T06:09:43;9.71;;;6.9;;
61675;SDS011;47574;52.090;5.244;2024-01-06T06:11:19;7.5;;;6.8;;
61675;SDS011;47574;52.090;5.244;2024-01-06T06:14:31;6.9;;;6.2;;
61675;SDS011;47574;52.090;5.244;2024-01-06T06:16:08;7.9;;;7.0;;
61675;SDS011;47574;52.090;5.244;2024-01-06T06:17:45;9.5;;;7.3;;
61675;SDS011;47574;52.090;5.244;2024-01-06T06:21:01;9.5;;;7.5;;
61675;SDS011;47574;52.090;5.244;2024-01-06T06:22:37;9.4;;;7.8;;
61675;SDS011;47574;52.090;5.244;2024-01-06T06:24:13;11.0;;;7.7;;
61675;SDS011;47574;52.090;5.244;2024-01-06T06:29:02;11.5;;;8.0;;
61675;SDS011;47574;52.090;5.244;2024-01-06T06:30:38;13.4;;;7.7;;
61675;SDS011;47574;52.090;5.244;2024-01-06T06:32:14;9.6;;;7.5;;
61675;SDS011;47574;52.090;5.244;2024-01-06T06:35:27;7.3;;;6.6;;
61675;SDS011;47574;52.090;5.244;2024-01-06T06:37:03;9.0;;;6.8;;
61675;SDS011;47574;52.090;5.244;2024-01-06T06:38:39;10.0;;;6.7;;
61675;SDS011;47574;52.090;5.244;2024-01-06T06:41:51;8.2;;;6.2;;
61675;SDS011;47574;52.090;5.244;2024-01-06T06:43:27;7.5;;;6.1;;
61675;SDS011;47574;52.090;5.244;2024-01-06T06:45:03;6.1;;;5.5;;
61675;SDS011;47574;52.090;5.244;2024-01-06T06:46:41;6.5;;;5.4;;
61675;SDS011;47574;52.090;5.244;2024-01-06T06:49:53;7.0;;;6.0;;
61675;SDS011;47574;52.090;5.244;2024-01-06T06:51:29;6.8;;;5.8;;
61675;SDS011;47574;52.090;5.244;2024-01-06T06:53:06;5.6;;;5.11;;
61675;SDS011;47574;52.090;5.244;2024-01-06T06:56:19;8.2;;;5.9;;
61675;SDS011;47574;52.090;5.244;2024-01-06T06:57:55;6.2;;;5.4;;
61675;SDS011;47574;52.090;5.244;2024-01-06T06:59:31;7.3;;;5.8;;
61675;SDS011;47574;52.090;5.244;2024-01-06T07:02:43;7.6;;;5.7;;
61675;SDS011;47574;52.090;5.244;2024-01-06T07:04:20;7.0;;;5.6;;
61675;SDS011;47574;52.090;5.244;2024-01-06T07:05:56;6.3;;;5.7;;
61675;SDS011;47574;52.090;5.244;2024-01-06T07:09:09;7.1;;;6.2;;
61675;SDS011;47574;52.090;5.244;2024-01-06T07:10:45;6.7;;;5.4;;
61675;SDS011;47574;52.090;5.244;2024-01-06T07:12:21;5.9;;;5.0;;
61675;SDS011;47574;52.090;5.244;2024-01-06T07:13:57;6.5;;;5.6;;
61675;SDS011;47574;52.090;5.244;2024-01-06T07:17:09;5.9;;;5.2;;
61675;SDS011;47574;52.090;5.244;2024-01-06T07:18:45;5.3;;;4.8;;
61675;SDS011;47574;52.090;5.244;2024-01-06T07:20:21;5.2;;;4.8;;
61675;SDS011;47574;52.090;5.244;2024-01-06T07:23:34;5.4;;;4.8;;
61675;SDS011;47574;52.090;5.244;2024-01-06T07:25:10;5.2;;;4.7;;
61675;SDS011;47574;52.090;5.244;2024-01-06T07:26:47;9.1;;;5.5;;
61675;SDS011;47574;52.090;5.244;2024-01-06T07:29:59;6.9;;;5.2;;
61675;SDS011;47574;52.090;5.244;2024-01-06T07:31:35;6.7;;;5.2;;
61675;SDS011;47574;52.090;5.244;2024-01-06T07:33:12;6.7;;;5.5;;
61675;SDS011;47574;52.090;5.244;2024-01-06T07:34:48;5.2;;;4.7;;
61675;SDS011;47574;52.090;5.244;2024-01-06T07:38:00;5.6;;;4.8;;
61675;SDS011;47574;52.090;5.244;2024-01-06T07:39:36;5.0;;;4.41;;
61675;SDS011;47574;52.090;5.244;2024-01-06T07:41:12;7.0;;;4.7;;
61675;SDS011;47574;52.090;5.244;2024-01-06T07:44:25;8.9;;;5.0;;
61675;SDS011;47574;52.090;5.244;2024-01-06T07:46:01;5.0;;;4.5;;
61675;SDS011;47574;52.090;5.244;2024-01-06T07:47:37;5.8;;;4.8;;
61675;SDS011;47574;52.090;5.244;2024-01-06T07:50:49;5.11;;;4.61;;
61675;SDS011;47574;52.090;5.244;2024-01-06T07:52:25;5.8;;;4.41;;
61675;SDS011;47574;52.090;5.244;2024-01-06T07:54:01;4.91;;;4.41;;
61675;SDS011;47574;52.090;5.244;2024-01-06T07:57:13;5.3;;;4.41;;
61675;SDS011;47574;52.090;5.244;2024-01-06T07:58:50;5.11;;;4.3;;
61675;SDS011;47574;52.090;5.244;2024-01-06T08:00:26;5.0;;;4.41;;
61675;SDS011;47574;52.090;5.244;2024-01-06T08:02:02;6.7;;;4.61;;
61675;SDS011;47574;52.090;5.244;2024-01-06T08:05:14;5.4;;;4.3;;
61675;SDS011;47574;52.090;5.244;2024-01-06T08:06:50;5.0;;;4.3;;
61675;SDS011;47574;52.090;5.244;2024-01-06T08:08:26;6.3;;;4.5;;
61675;SDS011;47574;52.090;5.244;2024-01-06T08:11:40;6.2;;;4.3;;
61675;SDS011;47574;52.090;5.244;2024-01-06T08:13:16;5.8;;;4.7;;
61675;SDS011;47574;52.090;5.244;2024-01-06T08:14:52;5.7;;;4.61;;
61675;SDS011;47574;52.090;5.244;2024-01-06T08:18:04;7.0;;;5.11;;
61675;SDS011;47574;52.090;5.244;2024-01-06T08:19:40;5.5;;;4.5;;
61675;SDS011;47574;52.090;5.244;2024-01-06T08:21:16;6.2;;;4.5;;
61675;SDS011;47574;52.090;5.244;2024-01-06T08:24:31;5.11;;;4.61;;
61675;SDS011;47574;52.090;5.244;2024-01-06T08:26:07;9.31;;;5.11;;
61675;SDS011;47574;52.090;5.244;2024-01-06T08:27:44;8.6;;;6.3;;
61675;SDS011;47574;52.090;5.244;2024-01-06T08:29:20;6.2;;;5.5;;
61675;SDS011;47574;52.090;5.244;2024-01-06T08:32:31;5.6;;;5.0;;
61675;SDS011;47574;52.090;5.244;2024-01-06T08:34:07;5.6;;;5.0;;
61675;SDS011;47574;52.090;5.244;2024-01-06T08:35:43;7.7;;;5.9;;
61675;SDS011;47574;52.090;5.244;2024-01-06T08:38:55;8.6;;;5.5;;
61675;SDS011;47574;52.090;5.244;2024-01-06T08:40:31;9.9;;;5.5;;
61675;SDS011;47574;52.090;5.244;2024-01-06T08:42:07;8.31;;;5.8;;
61675;SDS011;47574;52.090;5.244;2024-01-06T08:45:20;7.9;;;5.9;;
61675;SDS011;47574;52.090;5.244;2024-01-06T08:46:56;9.71;;;6.7;;
61675;SDS011;47574;52.090;5.244;2024-01-06T08:48:32;8.4;;;6.4;;
61675;SDS011;47574;52.090;5.244;2024-01-06T08:50:08;7.8;;;5.9;;
61675;SDS011;47574;52.090;5.244;2024-01-06T08:53:20;11.6;;;6.7;;
61675;SDS011;47574;52.090;5.244;2024-01-06T08:54:56;8.5;;;6.5;;
61675;SDS011;47574;52.090;5.244;2024-01-06T08:56:33;8.81;;;6.1;;
61675;SDS011;47574;52.090;5.244;2024-01-06T08:59:45;7.5;;;6.1;;
61675;SDS011;47574;52.090;5.244;2024-01-06T09:01:21;10.1;;;6.6;;
61675;SDS011;47574;52.090;5.244;2024-01-06T09:02:57;7.3;;;6.0;;
61675;SDS011;47574;52.090;5.244;2024-01-06T09:06:10;8.1;;;6.0;;
61675;SDS011;47574;52.090;5.244;2024-01-06T09:07:46;7.8;;;6.3;;
61675;SDS011;47574;52.090;5.244;2024-01-06T09:09:22;9.71;;;6.3;;
61675;SDS011;47574;52.090;5.244;2024-01-06T09:12:34;8.71;;;5.8;;
61675;SDS011;47574;52.090;5.244;2024-01-06T09:14:10;7.2;;;5.3;;
61675;SDS011;47574;52.090;5.244;2024-01-06T09:15:46;7.5;;;5.9;;
61675;SDS011;47574;52.090;5.244;2024-01-06T09:17:22;7.7;;;6.1;;
61675;SDS011;47574;52.090;5.244;2024-01-06T09:20:35;7.0;;;5.6;;
61675;SDS011;47574;52.090;5.244;2024-01-06T09:22:11;7.7;;;5.8;;
61675;SDS011;47574;52.090;5.244;2024-01-06T09:23:47;8.5;;;5.7;;
61675;SDS011;47574;52.090;5.244;2024-01-06T09:26:59;9.0;;;5.4;;
61675;SDS011;47574;52.090;5.244;2024-01-06T09:28:35;7.3;;;5.2;;
61675;SDS011;47574;52.090;5.244;2024-01-06T09:30:16;7.1;;;5.0;;
61675;SDS011;47574;52.090;5.244;2024-01-06T09:33:28;6.2;;;5.0;;
61675;SDS011;47574;52.090;5.244;2024-01-06T09:35:05;5.6;;;4.7;;
61675;SDS011;47574;52.090;5.244;2024-01-06T09:36:42;6.6;;;4.61;;
61675;SDS011;47574;52.090;5.244;2024-01-06T09:38:18;6.4;;;4.1;;
61675;SDS011;47574;52.090;5.244;2024-01-06T09:41:30;6.6;;;4.2;;
61675;SDS011;47574;52.090;5.244;2024-01-06T09:43:06;6.1;;;4.2;;
61675;SDS011;47574;52.090;5.244;2024-01-06T09:44:42;6.2;;;4.1;;
61675;SDS011;47574;52.090;5.244;2024-01-06T09:48:00;4.5;;;3.5;;
61675;SDS011;47574;52.090;5.244;2024-01-06T09:49:48;4.5;;;3.2;;
61675;SDS011;47574;52.090;5.244;2024-01-06T09:51:25;3.6;;;3.3;;
61675;SDS011;47574;52.090;5.244;2024-01-06T09:53:02;5.11;;;3.5;;
61675;SDS011;47574;52.090;5.244;2024-01-06T09:56:22;5.2;;;3.7;;
61675;SDS011;47574;52.090;5.244;2024-01-06T09:58:00;6.5;;;3.8;;
61675;SDS011;47574;52.090;5.244;2024-01-06T09:59:37;5.6;;;3.5;;
61675;SDS011;47574;52.090;5.244;2024-01-06T10:01:15;3.9;;;3.5;;
61675;SDS011;47574;52.090;5.244;2024-01-06T10:04:32;4.41;;;3.9;;
61675;SDS011;47574;52.090;5.244;2024-01-06T10:06:08;4.2;;;3.8;;
61675;SDS011;47574;52.090;5.244;2024-01-06T10:07:45;4.1;;;3.5;;
61675;SDS011;47574;52.090;5.244;2024-01-06T10:11:03;6.0;;;3.7;;
61675;SDS011;47574;52.090;5.244;2024-01-06T10:12:39;3.7;;;3.2;;
61675;SDS011;47574;52.090;5.244;2024-01-06T10:14:16;4.41;;;3.4;;
61675;SDS011;47574;52.090;5.244;2024-01-06T10:17:29;4.91;;;3.3;;
61675;SDS011;47574;52.090;5.244;2024-01-06T10:19:05;4.41;;;3.3;;
61675;SDS011;47574;52.090;5.244;2024-01-06T10:20:41;4.3;;;3.3;;
61675;SDS011;47574;52.090;5.244;2024-01-06T10:22:19;4.3;;;3.1;;
61675;SDS011;47574;52.090;5.244;2024-01-06T10:25:32;3.8;;;2.8;;
61675;SDS011;47574;52.090;5.244;2024-01-06T10:27:11;4.5;;;3.1;;
61675;SDS011;47574;52.090;5.244;2024-01-06T10:28:47;4.3;;;3.1;;
61675;SDS011;47574;52.090;5.244;2024-01-06T10:32:00;6.4;;;3.5;;
61675;SDS011;47574;52.090;5.244;2024-01-06T10:33:36;4.7;;;3.5;;
61675;SDS011;47574;52.090;5.244;2024-01-06T10:35:14;8.1;;;4.7;;
61675;SDS011;47574;52.090;5.244;2024-01-06T10:36:50;6.2;;;4.8;;
61675;SDS011;47574;52.090;5.244;2024-01-06T10:40:06;5.5;;;5.0;;
61675;SDS011;47574;52.090;5.244;2024-01-06T10:41:45;5.9;;;5.2;;
61675;SDS011;47574;52.090;5.244;2024-01-06T10:43:25;7.0;;;5.3;;
61675;SDS011;47574;52.090;5.244;2024-01-06T10:46:40;6.1;;;5.11;;
61675;SDS011;47574;52.090;5.244;2024-01-06T10:48:17;7.3;;;5.11;;
61675;SDS011;47574;52.090;5.244;2024-01-06T10:49:56;6.3;;;4.61;;
61675;SDS011;47574;52.090;5.244;2024-01-06T10:51:35;6.9;;;5.0;;
61675;SDS011;47574;52.090;5.244;2024-01-06T10:54:50;5.9;;;5.0;;
61675;SDS011;47574;52.090;5.244;2024-01-06T10:56:29;7.1;;;5.2;;
61675;SDS011;47574;52.090;5.244;2024-01-06T10:58:06;6.7;;;5.4;;
61675;SDS011;47574;52.090;5.244;2024-01-06T11:01:25;5.9;;;5.3;;
61675;SDS011;47574;52.090;5.244;2024-01-06T11:03:01;6.7;;;5.3;;
61675;SDS011;47574;52.090;5.244;2024-01-06T11:04:38;7.2;;;5.2;;
61675;SDS011;47574;52.090;5.244;2024-01-06T11:06:15;5.7;;;4.91;;
61675;SDS011;47574;52.090;5.244;2024-01-06T11:09:31;8.5;;;5.8;;
61675;SDS011;47574;52.090;5.244;2024-01-06T11:11:12;6.2;;;5.6;;
61675;SDS011;47574;52.090;5.244;2024-01-06T11:13:05;8.81;;;5.7;;
61675;SDS011;47574;52.090;5.244;2024-01-06T11:14:43;8.1;;;5.6;;
61675;SDS011;47574;52.090;5.244;2024-01-06T11:18:17;5.8;;;5.2;;
61675;SDS011;47574;52.090;5.244;2024-01-06T11:20:07;7.3;;;5.5;;
61675;SDS011;47574;52.090;5.244;2024-01-06T11:21:44;6.6;;;5.8;;
61675;SDS011;47574;52.090;5.244;2024-01-06T11:23:20;8.9;;;5.8;;
61675;SDS011;47574;52.090;5.244;2024-01-06T11:24:56;8.6;;;5.7;;
61675;SDS011;47574;52.090;5.244;2024-01-06T11:28:18;6.4;;;5.5;;
61675;SDS011;47574;52.090;5.244;2024-01-06T11:29:54;9.81;;;6.3;;
61675;SDS011;47574;52.090;5.244;2024-01-06T11:31:31;7.7;;;5.4;;
61675;SDS011;47574;52.090;5.244;2024-01-06T11:34:47;7.7;;;5.4;;
61675;SDS011;47574;52.090;5.244;2024-01-06T11:36:24;6.6;;;5.6;;
61675;SDS011;47574;52.090;5.244;2024-01-06T11:38:01;8.6;;;5.3;;
61675;SDS011;47574;52.090;5.244;2024-01-06T11:39:37;7.5;;;5.7;;
61675;SDS011;47574;52.090;5.244;2024-01-06T11:43:24;7.3;;;5.5;;
61675;SDS011;47574;52.090;5.244;2024-01-06T11:45:03;6.4;;;5.4;;
61675;SDS011;47574;52.090;5.244;2024-01-06T11:46:40;7.1;;;5.4;;
61675;SDS011;47574;52.090;5.244;2024-01-06T11:48:19;8.2;;;5.4;;
61675;SDS011;47574;52.090;5.244;2024-01-06T11:51:38;6.3;;;5.5;;
61675;SDS011;47574;52.090;5.244;2024-01-06T11:53:15;9.31;;;5.8;;
61675;SDS011;47574;52.090;5.244;2024-01-06T11:54:52;6.5;;;5.5;;
61675;SDS011;47574;52.090;5.244;2024-01-06T11:56:29;5.5;;;4.91;;
61675;SDS011;47574;52.090;5.244;2024-01-06T11:59:41;7.4;;;5.4;;
61675;SDS011;47574;52.090;5.244;2024-01-06T12:01:17;7.1;;;5.5;;
61675;SDS011;47574;52.090;5.244;2024-01-06T12:02:55;7.4;;;5.5;;
61675;SDS011;47574;52.090;5.244;2024-01-06T12:06:08;7.7;;;5.7;;
61675;SDS011;47574;52.090;5.244;2024-01-06T12:07:52;7.4;;;5.5;;
61675;SDS011;47574;52.090;5.244;2024-01-06T12:09:30;6.3;;;5.4;;
61675;SDS011;47574;52.090;5.244;2024-01-06T12:11:06;6.9;;;5.6;;
61675;SDS011;47574;52.090;5.244;2024-01-06T12:14:18;7.2;;;5.4;;
61675;SDS011;47574;52.090;5.244;2024-01-06T12:15:54;6.2;;;5.2;;
61675;SDS011;47574;52.090;5.244;2024-01-06T12:17:31;6.2;;;5.6;;
61675;SDS011;47574;52.090;5.244;2024-01-06T12:20:43;8.31;;;5.2;;
61675;SDS011;47574;52.090;5.244;2024-01-06T12:22:19;8.1;;;5.6;;
61675;SDS011;47574;52.090;5.244;2024-01-06T12:24:11;6.3;;;5.2;;
61675;SDS011;47574;52.090;5.244;2024-01-06T12:25:48;5.9;;;4.8;;
61675;SDS011;47574;52.090;5.244;2024-01-06T12:29:00;6.3;;;5.4;;
61675;SDS011;47574;52.090;5.244;2024-01-06T12:30:40;7.7;;;5.5;;
61675;SDS011;47574;52.090;5.244;2024-01-06T12:32:16;6.1;;;4.91;;
61675;SDS011;47574;52.090;5.244;2024-01-06T12:35:29;5.8;;;5.2;;
61675;SDS011;47574;52.090;5.244;2024-01-06T12:37:05;6.6;;;5.3;;
61675;SDS011;47574;52.090;5.244;2024-01-06T12:38:41;5.9;;;5.0;;
61675;SDS011;47574;52.090;5.244;2024-01-06T12:40:18;7.3;;;5.4;;
61675;SDS011;47574;52.090;5.244;2024-01-06T12:43:32;5.4;;;4.91;;
61675;SDS011;47574;52.090;5.244;2024-01-06T12:45:08;5.6;;;4.3;;
61675;SDS011;47574;52.090;5.244;2024-01-06T12:46:45;5.5;;;5.0;;
61675;SDS011;47574;52.090;5.244;2024-01-06T12:49:57;7.3;;;5.0;;
61675;SDS011;47574;52.090;5.244;2024-01-06T12:51:33;6.5;;;5.11;;
61675;SDS011;47574;52.090;5.244;2024-01-06T12:53:09;6.8;;;5.4;;
61675;SDS011;47574;52.090;5.244;2024-01-06T12:56:22;6.6;;;4.91;;
61675;SDS011;47574;52.090;5.244;2024-01-06T12:57:58;6.2;;;4.7;;